Time;durP1;ratioP1;P1;durP2;ratioP2;P2;SDS_P1;SDS_P2;PMS_P1;PMS_P2;Temp;Humidity;BMP_temperature;BMP_pressure;BME280_temperature;BME280_humidity;BME280_pressure;Samples;Min_cycle;Max_cycle;Signal;HPM_P1;HPM_P2
2024/01/27 00:00:32;;;;;;;12.10;3.20;;;5.50;99.90;;;;;;5052979;28;20201;-62
2024/01/27 00:02:59;;;;;;;9.63;2.40;;;5.50;99.90;;;;;;5052602;28;20610;-61
2024/01/27 00:05:26;;;;;;;11.85;2.90;;;5.40;99.90;;;;;;5052791;28;20202;-61
2024/01/27 00:07:53;;;;;;;13.40;2.85;;;5.50;99.90;;;;;;5052871;28;20208;-62
2024/01/27 00:10:19;;;;;;;11.48;2.67;;;5.50;99.90;;;;;;5052689;28;20202;-62
2024/01/27 00:12:47;;;;;;;8.90;2.63;;;5.50;99.90;;;;;;5052955;28;20218;-63
2024/01/27 00:15:14;;;;;;;8.02;2.72;;;5.50;99.90;;;;;;5053044;28;20214;-62
2024/01/27 00:17:41;;;;;;;10.50;2.97;;;5.50;99.90;;;;;;5053014;28;20221;-62
2024/01/27 00:20:08;;;;;;;14.95;3.03;;;5.50;99.90;;;;;;5053014;28;20208;-61
2024/01/27 00:22:35;;;;;;;14.70;2.70;;;5.50;99.90;;;;;;5052542;28;20229;-61
2024/01/27 00:25:02;;;;;;;9.52;2.20;;;5.50;99.90;;;;;;5053013;28;20204;-61
2024/01/27 00:27:29;;;;;;;17.42;2.90;;;5.50;99.90;;;;;;5054476;28;20671;-61
2024/01/27 00:29:57;;;;;;;12.40;3.05;;;5.50;99.90;;;;;;5057054;28;20665;-61
2024/01/27 00:32:23;;;;;;;10.18;2.72;;;5.50;99.90;;;;;;5056793;28;20221;-62
2024/01/27 00:34:50;;;;;;;13.80;3.17;;;5.50;99.90;;;;;;5058019;28;20205;-62
2024/01/27 00:37:17;;;;;;;8.23;2.25;;;5.50;99.90;;;;;;5057806;28;20201;-62
2024/01/27 00:39:45;;;;;;;10.70;3.72;;;5.50;99.90;;;;;;5058745;28;20244;-61
2024/01/27 00:42:12;;;;;;;10.63;2.78;;;5.50;99.90;;;;;;5058355;28;20671;-62
2024/01/27 00:44:38;;;;;;;14.18;2.80;;;5.50;99.90;;;;;;5057948;28;20671;-62
2024/01/27 00:47:06;;;;;;;10.98;2.80;;;5.50;99.90;;;;;;5057397;28;20205;-62
2024/01/27 00:49:33;;;;;;;10.88;2.60;;;5.60;99.90;;;;;;5056681;28;20234;-62
2024/01/27 00:52:00;;;;;;;10.57;2.97;;;5.60;99.90;;;;;;5056155;28;20202;-63
2024/01/27 00:54:27;;;;;;;14.18;4.00;;;5.60;99.90;;;;;;5056185;28;20667;-63
2024/01/27 00:56:53;;;;;;;10.73;3.13;;;5.60;99.90;;;;;;5056780;28;20558;-62
2024/01/27 00:59:20;;;;;;;11.85;3.17;;;5.60;99.90;;;;;;5056382;28;20221;-62
2024/01/27 01:01:47;;;;;;;7.30;2.97;;;5.60;99.90;;;;;;5055786;28;20244;-62
2024/01/27 01:04:15;;;;;;;17.90;3.85;;;5.60;99.90;;;;;;5056461;28;20212;-61
2024/01/27 01:06:42;;;;;;;27.25;3.83;;;5.50;99.90;;;;;;5059182;28;20203;-62
2024/01/27 01:09:09;;;;;;;11.90;2.40;;;5.50;99.90;;;;;;5059044;28;20578;-62
2024/01/27 01:11:36;;;;;;;12.02;2.30;;;5.50;99.90;;;;;;5058946;28;20206;-62
2024/01/27 01:14:03;;;;;;;8.68;3.60;;;5.40;99.90;;;;;;5057698;28;20285;-61
2024/01/27 01:16:30;;;;;;;13.25;2.75;;;5.30;99.90;;;;;;5057919;28;20284;-61
2024/01/27 01:18:57;;;;;;;13.85;3.58;;;5.30;99.90;;;;;;5055211;28;20651;-61
2024/01/27 01:21:25;;;;;;;11.85;3.45;;;5.10;99.90;;;;;;5055659;28;20208;-61
2024/01/27 01:23:52;;;;;;;14.38;3.60;;;5.10;99.90;;;;;;5055335;28;20222;-62
2024/01/27 01:26:18;;;;;;;11.60;3.40;;;5.00;99.90;;;;;;5055423;28;20267;-61
2024/01/27 01:28:45;;;;;;;14.70;4.47;;;4.90;99.90;;;;;;5055517;28;20208;-63
2024/01/27 01:31:12;;;;;;;13.10;2.97;;;4.80;99.90;;;;;;5055367;28;20208;-61
2024/01/27 01:33:39;;;;;;;13.38;3.17;;;4.70;99.90;;;;;;5055214;28;20218;-62
2024/01/27 01:36:06;;;;;;;25.65;3.55;;;4.70;99.90;;;;;;5055258;28;20217;-61
2024/01/27 01:38:34;;;;;;;16.92;3.10;;;4.60;99.90;;;;;;5055449;28;20218;-61
2024/01/27 01:41:01;;;;;;;17.83;3.35;;;4.60;99.90;;;;;;5054043;28;20209;-60
2024/01/27 01:43:28;;;;;;;14.60;2.88;;;4.50;99.90;;;;;;5056334;28;20221;-62
2024/01/27 01:45:55;;;;;;;18.88;3.92;;;4.40;99.90;;;;;;5056700;28;20664;-62
2024/01/27 01:48:22;;;;;;;12.05;3.00;;;4.40;99.90;;;;;;5056231;28;20208;-62
2024/01/27 01:50:49;;;;;;;11.00;3.00;;;4.30;99.90;;;;;;5055429;28;20205;-62
2024/01/27 01:53:16;;;;;;;9.07;2.85;;;4.30;99.90;;;;;;5054915;28;20277;-61
2024/01/27 01:55:44;;;;;;;13.05;3.35;;;4.20;99.90;;;;;;5055133;28;20208;-62
2024/01/27 01:58:11;;;;;;;14.60;3.45;;;4.20;99.90;;;;;;5054577;28;20213;-62
2024/01/27 02:00:37;;;;;;;11.13;3.30;;;4.20;99.90;;;;;;5054987;28;20204;-62
2024/01/27 02:03:05;;;;;;;11.63;3.97;;;4.10;99.90;;;;;;5054373;28;20240;-61
2024/01/27 02:05:32;;;;;;;9.88;2.88;;;4.10;99.90;;;;;;5054755;28;20202;-61
2024/01/27 02:08:00;;;;;;;15.02;3.88;;;4.10;99.90;;;;;;5054492;28;20202;-61
2024/01/27 02:10:27;;;;;;;13.18;3.35;;;4.00;99.90;;;;;;5054692;28;20684;-61
2024/01/27 02:12:55;;;;;;;15.30;3.10;;;4.00;99.90;;;;;;5054773;28;20221;-61
2024/01/27 02:15:22;;;;;;;15.77;3.80;;;4.00;99.90;;;;;;5054987;28;20233;-62
2024/01/27 02:17:49;;;;;;;15.05;2.95;;;4.00;99.90;;;;;;5055556;28;20217;-60
2024/01/27 02:20:16;;;;;;;10.00;2.72;;;4.00;99.90;;;;;;5054755;28;20202;-61
2024/01/27 02:22:42;;;;;;;20.75;3.92;;;3.90;99.90;;;;;;5054232;28;20222;-62
2024/01/27 02:25:11;;;;;;;13.50;3.40;;;4.00;99.90;;;;;;5054496;28;20202;-62
2024/01/27 02:27:37;;;;;;;17.40;3.60;;;3.90;99.90;;;;;;5053974;28;20695;-61
2024/01/27 02:30:05;;;;;;;17.52;3.58;;;3.90;99.90;;;;;;5054097;28;20383;-61
2024/01/27 02:32:32;;;;;;;8.93;3.25;;;3.90;99.90;;;;;;5054324;28;20592;-61
2024/01/27 02:34:59;;;;;;;11.38;3.05;;;3.90;99.90;;;;;;5054259;28;20220;-61
2024/01/27 02:37:25;;;;;;;17.02;4.13;;;3.90;99.90;;;;;;5054269;28;20204;-63
2024/01/27 02:39:52;;;;;;;12.23;3.20;;;3.80;99.90;;;;;;5054023;28;20229;-61
2024/01/27 02:42:20;;;;;;;12.48;4.13;;;3.90;99.90;;;;;;5054123;28;20227;-60
2024/01/27 02:44:47;;;;;;;11.15;2.85;;;3.90;99.90;;;;;;5054015;28;20204;-61
2024/01/27 02:47:14;;;;;;;15.43;4.60;;;3.80;99.90;;;;;;5054141;28;20224;-63
2024/01/27 02:49:40;;;;;;;6.78;2.58;;;3.80;99.90;;;;;;5053959;28;20208;-62
2024/01/27 02:52:08;;;;;;;7.68;2.90;;;3.80;99.90;;;;;;5052478;28;20206;-61
2024/01/27 02:54:35;;;;;;;13.55;3.20;;;3.80;99.90;;;;;;5054185;28;20197;-62
2024/01/27 02:57:02;;;;;;;15.48;3.20;;;3.80;99.90;;;;;;5053745;28;20701;-62
2024/01/27 02:59:30;;;;;;;10.23;3.50;;;3.80;99.90;;;;;;5055077;28;20221;-62
2024/01/27 03:01:57;;;;;;;13.70;2.80;;;3.80;99.90;;;;;;5054473;28;20233;-63
2024/01/27 03:04:24;;;;;;;10.40;3.25;;;3.80;99.90;;;;;;5078143;22;20233;-66
2024/01/27 03:06:51;;;;;;;6.85;2.45;;;3.80;99.90;;;;;;5054294;28;20212;-66
2024/01/27 03:09:18;;;;;;;11.15;3.70;;;3.80;99.90;;;;;;5054976;28;20202;-68
2024/01/27 03:11:44;;;;;;;13.93;4.10;;;3.80;99.90;;;;;;5054584;28;20274;-67
2024/01/27 03:14:11;;;;;;;11.05;3.28;;;3.80;99.90;;;;;;5055228;28;20221;-67
2024/01/27 03:16:39;;;;;;;8.88;2.75;;;3.80;99.90;;;;;;5054217;28;20678;-69
2024/01/27 03:19:07;;;;;;;9.85;2.20;;;3.70;99.90;;;;;;5054513;28;20271;-65
2024/01/27 03:21:33;;;;;;;12.32;3.15;;;3.70;99.90;;;;;;5054455;28;20235;-66
2024/01/27 03:24:00;;;;;;;11.98;2.80;;;3.70;99.90;;;;;;5053922;28;20223;-65
2024/01/27 03:26:27;;;;;;;7.68;3.28;;;3.70;99.90;;;;;;5053785;28;20205;-66
2024/01/27 03:28:54;;;;;;;8.85;2.80;;;3.70;99.90;;;;;;5053874;28;20198;-67
2024/01/27 03:31:21;;;;;;;13.63;3.30;;;3.70;99.90;;;;;;5053799;28;20635;-66
2024/01/27 03:33:49;;;;;;;11.05;3.45;;;3.70;99.90;;;;;;5053663;28;20225;-65
2024/01/27 03:36:16;;;;;;;8.45;2.95;;;3.70;99.90;;;;;;5053370;28;20201;-65
2024/01/27 03:38:43;;;;;;;15.90;4.25;;;3.70;99.90;;;;;;5052664;28;20217;-66
2024/01/27 03:41:10;;;;;;;12.90;3.47;;;3.70;99.90;;;;;;5053005;28;20207;-65
2024/01/27 03:43:36;;;;;;;15.63;3.30;;;3.60;99.90;;;;;;5053007;28;20619;-64
2024/01/27 03:46:04;;;;;;;20.85;4.63;;;3.60;99.90;;;;;;5053107;28;20197;-65
2024/01/27 03:48:30;;;;;;;19.27;4.03;;;3.60;99.90;;;;;;5052678;28;20684;-64
2024/01/27 03:50:58;;;;;;;14.95;4.07;;;3.60;99.90;;;;;;5052934;28;20197;-65
2024/01/27 03:53:25;;;;;;;10.68;2.67;;;3.60;99.90;;;;;;5053128;28;20248;-65
2024/01/27 03:55:52;;;;;;;23.98;3.85;;;3.60;99.90;;;;;;5053036;28;20217;-65
2024/01/27 03:58:19;;;;;;;8.57;2.60;;;3.60;99.90;;;;;;5052967;28;20201;-66
2024/01/27 04:00:46;;;;;;;15.35;3.97;;;3.60;99.90;;;;;;5053016;28;20213;-64
2024/01/27 04:03:13;;;;;;;13.00;3.45;;;3.60;99.90;;;;;;5053185;28;20236;-65
2024/01/27 04:05:39;;;;;;;12.10;3.88;;;3.60;99.90;;;;;;5054264;28;20211;-65
2024/01/27 04:08:08;;;;;;;10.20;2.95;;;3.60;99.90;;;;;;5052988;28;20218;-65
2024/01/27 04:13:05;;;;;;;13.55;3.72;;;3.50;99.90;;;;;;5090785;28;20572;-65
2024/01/27 04:15:37;;;;;;;17.88;4.47;;;3.50;99.90;;;;;;5090189;28;20200;-65
2024/01/27 04:18:04;;;;;;;10.38;3.47;;;3.60;99.90;;;;;;5090218;28;20199;-64
2024/01/27 04:20:31;;;;;;;5.13;2.78;;;3.60;99.90;;;;;;5089765;28;20670;-65
2024/01/27 04:22:57;;;;;;;9.48;2.85;;;3.60;99.90;;;;;;5090468;28;20639;-65
2024/01/27 04:25:24;;;;;;;8.18;2.53;;;3.50;99.90;;;;;;5099598;22;20238;-67
2024/01/27 04:27:51;;;;;;;16.35;3.55;;;3.50;99.90;;;;;;5071142;28;20197;-66
2024/01/27 04:30:19;;;;;;;11.05;3.25;;;3.50;99.90;;;;;;5071430;28;20208;-67
2024/01/27 04:32:48;;;;;;;11.85;3.40;;;3.50;99.90;;;;;;5072662;28;20223;-65
2024/01/27 04:35:16;;;;;;;8.23;2.90;;;3.50;99.90;;;;;;5070937;28;20574;-66
2024/01/27 04:37:44;;;;;;;6.78;2.40;;;3.50;99.90;;;;;;5071274;28;20289;-67
2024/01/27 04:40:12;;;;;;;10.35;3.15;;;3.50;99.90;;;;;;5071053;28;20205;-66
2024/01/27 04:42:40;;;;;;;10.23;3.42;;;3.40;99.90;;;;;;5070651;28;20671;-66
2024/01/27 04:45:07;;;;;;;12.95;4.07;;;3.40;99.90;;;;;;5070610;28;20231;-67
2024/01/27 04:47:35;;;;;;;18.15;4.03;;;3.40;99.90;;;;;;5072310;28;20201;-66
2024/01/27 04:50:03;;;;;;;7.57;2.70;;;3.40;99.90;;;;;;5073423;28;20205;-65
2024/01/27 04:52:29;;;;;;;24.48;5.40;;;3.40;99.90;;;;;;5074730;28;20224;-65
2024/01/27 04:54:56;;;;;;;17.23;3.47;;;3.40;99.90;;;;;;5072919;28;20221;-65
2024/01/27 04:57:23;;;;;;;6.72;2.60;;;3.40;99.90;;;;;;5072102;28;20197;-66
2024/01/27 04:59:50;;;;;;;6.20;3.13;;;3.40;99.90;;;;;;5072997;28;20201;-71
2024/01/27 05:02:16;;;;;;;16.60;3.58;;;3.40;99.90;;;;;;5076159;28;20194;-65
2024/01/27 05:04:45;;;;;;;11.70;3.85;;;3.40;99.90;;;;;;5076501;28;20248;-66
2024/01/27 05:07:11;;;;;;;5.63;2.45;;;3.40;99.90;;;;;;5075561;28;20202;-65
2024/01/27 05:09:39;;;;;;;10.73;2.80;;;3.40;99.90;;;;;;5077387;28;20212;-66
2024/01/27 05:12:06;;;;;;;8.80;2.83;;;3.30;99.90;;;;;;5078275;28;20217;-65
2024/01/27 05:14:33;;;;;;;11.63;3.00;;;3.30;99.90;;;;;;5077860;28;20285;-66
2024/01/27 05:16:59;;;;;;;7.20;2.75;;;3.30;99.90;;;;;;5081184;28;20201;-64
2024/01/27 05:19:26;;;;;;;12.00;2.70;;;3.30;99.90;;;;;;5082745;28;20205;-66
2024/01/27 05:21:54;;;;;;;8.32;3.33;;;3.30;99.90;;;;;;5077153;28;20193;-66
2024/01/27 05:24:21;;;;;;;14.85;3.70;;;3.30;99.90;;;;;;5058071;28;20238;-66
2024/01/27 05:26:48;;;;;;;13.48;2.70;;;3.30;99.90;;;;;;5057970;28;20182;-66
2024/01/27 05:29:15;;;;;;;12.98;3.63;;;3.30;99.90;;;;;;5058655;28;20212;-67
2024/01/27 05:31:43;;;;;;;11.88;2.60;;;3.20;99.90;;;;;;5058247;28;20224;-65
2024/01/27 05:34:10;;;;;;;13.32;3.78;;;3.20;99.90;;;;;;5057222;28;20225;-65
2024/01/27 05:36:37;;;;;;;15.02;3.65;;;3.20;99.90;;;;;;5057733;28;20202;-66
2024/01/27 05:39:05;;;;;;;11.63;3.45;;;3.20;99.90;;;;;;5056974;28;20213;-66
2024/01/27 05:41:32;;;;;;;7.03;2.60;;;3.10;99.90;;;;;;5057732;28;20189;-66
2024/01/27 05:43:59;;;;;;;12.77;3.65;;;3.10;99.90;;;;;;5056869;28;20209;-66
2024/01/27 05:46:26;;;;;;;15.55;4.35;;;3.10;99.90;;;;;;5056763;28;20212;-66
2024/01/27 05:48:54;;;;;;;12.23;3.92;;;3.10;99.90;;;;;;5056349;28;20663;-65
2024/01/27 05:51:20;;;;;;;13.30;3.60;;;3.10;99.90;;;;;;5056645;28;20580;-66
2024/01/27 05:53:47;;;;;;;10.15;2.60;;;3.10;99.90;;;;;;5057936;28;20202;-65
2024/01/27 05:56:16;;;;;;;15.90;2.78;;;3.00;99.90;;;;;;5058685;28;20228;-66
2024/01/27 05:58:42;;;;;;;7.53;2.63;;;3.00;99.90;;;;;;5057973;28;20617;-65
2024/01/27 06:01:09;;;;;;;19.00;3.28;;;3.00;99.90;;;;;;5058086;28;20794;-65
2024/01/27 06:03:36;;;;;;;7.47;2.75;;;3.00;99.90;;;;;;5057966;28;20210;-66
2024/01/27 06:06:03;;;;;;;11.48;3.38;;;3.10;99.90;;;;;;5056491;28;20644;-66
2024/01/27 06:08:30;;;;;;;12.98;3.00;;;3.10;99.90;;;;;;5055938;28;20198;-65
2024/01/27 06:10:57;;;;;;;8.25;3.20;;;3.10;99.90;;;;;;5055793;28;20201;-66
2024/01/27 06:13:25;;;;;;;14.35;3.30;;;3.10;99.90;;;;;;5055299;28;20217;-66
2024/01/27 06:15:52;;;;;;;13.77;3.38;;;3.10;99.90;;;;;;5055657;28;20225;-64
2024/01/27 06:18:19;;;;;;;12.73;2.70;;;3.00;99.90;;;;;;5055935;28;20676;-64
2024/01/27 06:20:45;;;;;;;14.13;3.58;;;3.00;99.90;;;;;;5056412;28;20585;-67
2024/01/27 06:23:12;;;;;;;13.57;3.40;;;3.00;99.90;;;;;;5056461;28;20208;-65
2024/01/27 06:25:40;;;;;;;9.75;2.63;;;2.90;99.90;;;;;;5056666;28;20745;-65
2024/01/27 06:28:06;;;;;;;13.68;3.72;;;3.00;99.90;;;;;;5057923;28;20206;-67
2024/01/27 06:30:34;;;;;;;19.58;3.47;;;3.00;99.90;;;;;;5056444;28;20709;-66
2024/01/27 06:33:00;;;;;;;14.48;3.85;;;3.10;99.90;;;;;;5056348;28;20230;-65
2024/01/27 06:35:27;;;;;;;10.60;3.40;;;3.10;99.90;;;;;;5055696;28;20586;-64
2024/01/27 06:37:54;;;;;;;5.97;2.58;;;3.10;99.90;;;;;;5056472;28;20442;-65
2024/01/27 06:40:21;;;;;;;11.30;3.45;;;3.10;99.90;;;;;;5055580;28;20201;-64
2024/01/27 06:42:47;;;;;;;15.48;3.10;;;3.00;99.90;;;;;;5055625;28;20197;-65
2024/01/27 06:45:14;;;;;;;16.05;3.78;;;3.00;99.90;;;;;;5055496;28;20236;-64
2024/01/27 06:47:42;;;;;;;8.02;3.63;;;3.10;99.90;;;;;;5055520;28;20209;-66
2024/01/27 06:50:10;;;;;;;6.78;2.67;;;3.10;99.90;;;;;;5055356;28;20202;-66
2024/01/27 06:52:37;;;;;;;18.15;3.72;;;3.00;99.90;;;;;;5055159;28;20659;-65
2024/01/27 06:55:06;;;;;;;7.00;3.15;;;3.00;99.90;;;;;;5054730;28;20226;-65
2024/01/27 06:57:33;;;;;;;10.18;3.38;;;3.00;99.90;;;;;;5054487;28;20209;-64
2024/01/27 07:00:00;;;;;;;11.10;3.30;;;2.90;99.90;;;;;;5055205;28;20197;-65
2024/01/27 07:02:27;;;;;;;7.35;2.83;;;2.90;99.90;;;;;;5056775;28;20664;-64
2024/01/27 07:04:55;;;;;;;16.98;3.15;;;2.90;99.90;;;;;;5056711;28;20228;-66
2024/01/27 07:07:26;;;;;;;13.05;3.60;;;2.90;99.90;;;;;;5056309;28;20202;-64
2024/01/27 07:09:53;;;;;;;14.80;2.83;;;2.90;99.90;;;;;;5055689;28;20280;-64
2024/01/27 07:12:20;;;;;;;6.13;2.50;;;2.90;99.90;;;;;;5055425;28;20232;-65
2024/01/27 07:14:47;;;;;;;8.68;3.10;;;2.90;99.90;;;;;;5054572;28;20312;-65
2024/01/27 07:17:14;;;;;;;18.55;2.88;;;2.90;99.90;;;;;;5054890;28;20554;-65
2024/01/27 07:19:40;;;;;;;10.63;3.25;;;2.90;99.90;;;;;;5056825;28;20565;-66
2024/01/27 07:22:09;;;;;;;16.27;3.55;;;3.00;99.90;;;;;;5056723;28;20227;-65
2024/01/27 07:24:35;;;;;;;10.70;3.40;;;3.00;99.90;;;;;;5055523;28;20221;-66
2024/01/27 07:27:03;;;;;;;9.57;2.55;;;3.00;99.90;;;;;;5056732;28;20205;-66
2024/01/27 07:29:30;;;;;;;16.98;4.45;;;3.00;99.90;;;;;;5058093;28;20250;-65
2024/01/27 07:31:57;;;;;;;12.95;3.30;;;3.00;99.90;;;;;;5058096;28;20226;-65
2024/01/27 07:34:24;;;;;;;22.15;4.10;;;3.10;99.90;;;;;;5056611;28;20218;-66
2024/01/27 07:36:51;;;;;;;9.82;3.05;;;3.10;99.90;;;;;;5056774;28;20208;-65
2024/01/27 07:39:19;;;;;;;13.02;3.00;;;3.20;99.90;;;;;;5059613;28;20205;-67
2024/01/27 07:41:48;;;;;;;11.85;3.22;;;3.30;99.90;;;;;;5060261;28;20208;-66
2024/01/27 07:44:15;;;;;;;18.67;3.78;;;3.30;99.90;;;;;;5058261;28;20232;-66
2024/01/27 07:46:42;;;;;;;9.93;3.13;;;3.40;99.90;;;;;;5059075;28;20201;-64
2024/01/27 07:49:11;;;;;;;8.77;3.08;;;3.40;99.90;;;;;;5058150;28;20204;-66
2024/01/27 07:51:38;;;;;;;8.77;2.65;;;3.50;99.90;;;;;;5059146;28;20569;-66
2024/01/27 07:54:05;;;;;;;11.25;3.20;;;3.60;99.90;;;;;;5059423;28;20228;-66
2024/01/27 07:56:33;;;;;;;9.60;2.90;;;3.70;99.90;;;;;;5058751;28;20197;-65
2024/01/27 07:59:00;;;;;;;8.80;3.08;;;3.70;99.90;;;;;;5057953;28;20584;-64
2024/01/27 08:01:27;;;;;;;10.38;3.05;;;3.70;99.90;;;;;;5058245;28;20206;-65
2024/01/27 08:03:53;;;;;;;10.43;3.00;;;3.70;99.90;;;;;;5057690;28;20198;-64
2024/01/27 08:06:30;;;;;;;15.73;3.45;;;3.80;99.90;;;;;;5058531;28;20201;-65
2024/01/27 08:08:57;;;;;;;5.95;3.17;;;3.70;99.90;;;;;;5057360;28;20197;-65
2024/01/27 08:11:24;;;;;;;6.78;2.78;;;3.90;99.90;;;;;;5056621;28;20685;-65
2024/01/27 08:13:53;;;;;;;10.77;3.22;;;4.10;99.90;;;;;;5056168;28;20748;-65
2024/01/27 08:16:21;;;;;;;9.43;3.75;;;4.50;99.90;;;;;;5057310;28;20215;-64
2024/01/27 08:18:48;;;;;;;11.75;3.50;;;4.70;99.90;;;;;;5057033;28;20244;-65
2024/01/27 08:21:14;;;;;;;6.93;2.72;;;4.70;99.90;;;;;;5058422;28;20292;-64
2024/01/27 08:23:42;;;;;;;8.93;3.58;;;5.00;99.90;;;;;;5058929;28;20540;-64
2024/01/27 08:26:09;;;;;;;8.38;3.17;;;5.20;99.90;;;;;;5057539;28;20232;-65
2024/01/27 08:28:36;;;;;;;8.02;3.95;;;5.20;99.90;;;;;;5057719;28;20202;-65
2024/01/27 08:31:04;;;;;;;11.68;4.15;;;5.10;99.90;;;;;;5057791;28;20240;-64
2024/01/27 08:33:31;;;;;;;12.00;3.47;;;5.00;99.90;;;;;;5056835;28;20722;-64
2024/01/27 08:35:58;;;;;;;10.13;3.20;;;4.90;99.90;;;;;;5055892;28;20233;-65
2024/01/27 08:38:25;;;;;;;12.65;3.15;;;4.90;99.90;;;;;;5058944;28;20202;-66
2024/01/27 08:40:52;;;;;;;7.03;3.15;;;4.80;99.90;;;;;;5057111;28;20219;-65
2024/01/27 08:43:19;;;;;;;6.57;3.90;;;4.80;99.90;;;;;;5055896;28;20197;-65
2024/01/27 08:45:46;;;;;;;11.73;3.13;;;4.80;99.90;;;;;;5057306;28;20307;-64
2024/01/27 08:48:15;;;;;;;13.40;4.45;;;4.80;99.90;;;;;;5058329;28;20297;-65
2024/01/27 08:50:42;;;;;;;11.30;3.95;;;4.70;99.90;;;;;;5059072;28;20210;-65
2024/01/27 08:53:08;;;;;;;9.35;3.83;;;4.70;99.90;;;;;;5058578;28;20218;-65
2024/01/27 08:55:35;;;;;;;13.43;3.95;;;4.70;99.90;;;;;;5068028;28;20214;-66
2024/01/27 08:58:02;;;;;;;14.13;5.60;;;4.70;99.90;;;;;;5070025;28;20225;-64
2024/01/27 09:00:29;;;;;;;11.45;4.32;;;4.70;99.90;;;;;;5068175;28;20208;-66
2024/01/27 09:02:56;;;;;;;11.57;4.45;;;4.70;99.90;;;;;;5071797;28;20226;-66
2024/01/27 09:05:24;;;;;;;15.32;4.47;;;4.80;99.90;;;;;;5069185;28;20217;-66
2024/01/27 09:07:51;;;;;;;14.98;4.40;;;4.80;99.90;;;;;;5072836;28;20244;-65
2024/01/27 09:10:18;;;;;;;14.13;4.65;;;4.80;99.90;;;;;;5071769;28;20205;-65
2024/01/27 09:12:44;;;;;;;10.70;4.30;;;4.90;99.90;;;;;;5067480;28;20222;-64
2024/01/27 09:15:11;;;;;;;10.98;4.10;;;4.90;99.90;;;;;;5058862;28;20225;-65
2024/01/27 09:17:39;;;;;;;13.93;5.00;;;4.90;99.90;;;;;;5058898;28;20198;-65
2024/01/27 09:20:07;;;;;;;12.98;4.35;;;5.00;99.90;;;;;;5058895;28;20201;-65
2024/01/27 09:22:35;;;;;;;10.65;4.28;;;5.00;99.90;;;;;;5059186;28;20198;-65
2024/01/27 09:25:02;;;;;;;9.50;4.18;;;5.10;99.90;;;;;;5058722;28;20297;-64
2024/01/27 09:27:29;;;;;;;16.45;4.65;;;5.10;99.90;;;;;;5058294;28;20675;-66
2024/01/27 09:29:55;;;;;;;9.50;4.32;;;5.20;99.90;;;;;;5057878;28;20570;-66
2024/01/27 09:32:22;;;;;;;11.05;4.45;;;5.30;99.90;;;;;;5057741;28;20202;-64
2024/01/27 09:34:49;;;;;;;16.50;5.82;;;5.40;99.90;;;;;;5058373;28;20217;-65
2024/01/27 09:37:16;;;;;;;16.27;5.53;;;5.40;99.90;;;;;;5057819;28;20224;-65
2024/01/27 09:39:44;;;;;;;13.35;4.75;;;5.50;99.90;;;;;;5057708;28;20202;-65
2024/01/27 09:42:15;;;;;;;12.55;4.55;;;5.50;99.90;;;;;;5057790;28;20585;-65
2024/01/27 09:44:45;;;;;;;14.80;4.50;;;5.60;99.90;;;;;;5056633;28;20731;-65
2024/01/27 09:47:12;;;;;;;9.55;4.60;;;5.60;99.90;;;;;;5056662;28;20228;-64
2024/01/27 09:49:40;;;;;;;14.00;5.15;;;5.70;99.90;;;;;;5056450;28;20215;-65
2024/01/27 09:52:08;;;;;;;10.10;4.10;;;5.70;99.90;;;;;;5057437;28;20198;-65
2024/01/27 09:54:35;;;;;;;11.32;4.57;;;5.80;99.90;;;;;;5056392;28;20691;-65
2024/01/27 09:57:03;;;;;;;17.75;5.10;;;5.80;99.90;;;;;;5056725;28;20284;-65
2024/01/27 09:59:30;;;;;;;13.95;5.00;;;5.80;99.90;;;;;;5059935;28;20678;-64
2024/01/27 10:01:59;;;;;;;10.23;4.38;;;5.80;99.90;;;;;;5058613;28;20690;-64
2024/01/27 10:04:26;;;;;;;10.95;5.97;;;5.80;99.90;;;;;;5056790;28;20221;-64
2024/01/27 10:06:53;;;;;;;11.77;5.40;;;5.80;99.90;;;;;;5056269;28;20206;-64
2024/01/27 10:09:20;;;;;;;9.70;4.93;;;5.80;99.90;;;;;;5057109;28;20201;-64
2024/01/27 10:11:48;;;;;;;19.15;5.32;;;5.90;99.90;;;;;;5058004;28;20208;-65
2024/01/27 10:14:16;;;;;;;14.27;4.93;;;5.90;99.90;;;;;;5057077;28;20225;-63
2024/01/27 10:16:44;;;;;;;10.60;5.22;;;5.90;99.90;;;;;;5056629;28;20205;-63
2024/01/27 10:19:16;;;;;;;11.82;4.85;;;5.90;99.90;;;;;;5056924;28;20329;-65
2024/01/27 10:21:43;;;;;;;12.40;5.35;;;6.00;99.90;;;;;;5058158;28;20204;-63
2024/01/27 10:24:10;;;;;;;14.68;7.03;;;6.00;99.90;;;;;;5056824;28;20235;-65
2024/01/27 10:26:37;;;;;;;9.07;4.03;;;6.10;99.90;;;;;;5055926;28;20189;-64
2024/01/27 10:29:04;;;;;;;12.50;4.82;;;6.20;99.90;;;;;;5055905;28;20225;-64
2024/01/27 10:31:34;;;;;;;15.45;5.43;;;6.20;99.90;;;;;;5055737;28;20601;-63
2024/01/27 10:34:03;;;;;;;18.42;5.63;;;6.30;99.90;;;;;;5057420;28;20210;-64
2024/01/27 10:36:40;;;;;;;13.05;5.00;;;6.30;99.90;;;;;;5055983;28;20232;-66
2024/01/27 10:39:18;;;;;;;16.98;5.10;;;6.30;99.90;;;;;;5060898;28;20186;-66
2024/01/27 10:41:46;;;;;;;11.13;6.20;;;6.40;99.90;;;;;;5058205;28;20255;-64
2024/01/27 10:44:15;;;;;;;12.40;4.88;;;6.50;99.90;;;;;;5058688;28;20232;-64
2024/01/27 10:46:46;;;;;;;11.10;5.78;;;6.60;99.90;;;;;;5064044;28;20331;-65
2024/01/27 10:49:14;;;;;;;11.57;4.65;;;6.60;99.90;;;;;;5062363;28;20555;-64
2024/01/27 10:51:46;;;;;;;16.35;5.32;;;6.60;99.90;;;;;;5057489;28;20588;-64
2024/01/27 10:54:16;;;;;;;8.35;4.07;;;6.60;99.90;;;;;;5056272;28;20757;-63
2024/01/27 10:56:45;;;;;;;13.55;4.30;;;6.60;99.90;;;;;;5056797;28;20288;-65
2024/01/27 10:59:14;;;;;;;8.60;4.57;;;6.70;99.90;;;;;;5057524;28;20309;-66
2024/01/27 11:01:44;;;;;;;11.38;4.93;;;6.70;99.90;;;;;;5056777;28;20209;-64
2024/01/27 11:04:13;;;;;;;8.70;4.82;;;6.80;99.90;;;;;;5056658;28;20257;-65
2024/01/27 11:06:41;;;;;;;19.73;5.18;;;6.80;99.90;;;;;;5058079;28;20256;-64
2024/01/27 11:09:11;;;;;;;8.40;4.85;;;6.70;99.90;;;;;;5057118;28;20228;-63
2024/01/27 11:11:39;;;;;;;12.30;5.05;;;6.70;99.90;;;;;;5056296;28;20197;-65
2024/01/27 11:14:06;;;;;;;10.30;4.97;;;6.80;99.90;;;;;;5055869;28;20229;-64
2024/01/27 11:16:33;;;;;;;9.63;4.57;;;6.80;99.90;;;;;;5055641;28;20216;-63
2024/01/27 11:19:01;;;;;;;12.75;4.90;;;6.80;99.90;;;;;;5055291;28;20236;-64
2024/01/27 11:21:28;;;;;;;15.73;4.82;;;6.80;99.90;;;;;;5055781;28;20292;-65
2024/01/27 11:23:54;;;;;;;6.88;3.95;;;6.80;99.90;;;;;;5055765;28;20703;-64
2024/01/27 11:26:22;;;;;;;11.68;4.25;;;6.90;99.90;;;;;;5055987;28;20212;-64
2024/01/27 11:28:50;;;;;;;8.20;4.63;;;6.90;99.90;;;;;;5055145;28;20570;-65
2024/01/27 11:31:19;;;;;;;14.07;5.60;;;6.90;99.90;;;;;;5055503;28;20244;-65
2024/01/27 11:33:48;;;;;;;10.30;4.70;;;7.00;99.90;;;;;;5055811;28;20225;-63
2024/01/27 11:36:23;;;;;;;13.23;5.20;;;7.00;99.90;;;;;;5055962;28;20205;-65
2024/01/27 11:38:50;;;;;;;15.07;5.50;;;7.00;99.90;;;;;;5055526;28;20205;-64
2024/01/27 11:41:27;;;;;;;7.82;3.90;;;7.10;99.90;;;;;;5055004;28;20197;-65
2024/01/27 11:43:55;;;;;;;8.77;4.65;;;7.10;99.90;;;;;;5057297;28;20279;-63
2024/01/27 11:46:22;;;;;;;13.82;4.90;;;7.10;99.90;;;;;;5055316;28;20206;-64
2024/01/27 11:48:50;;;;;;;11.35;3.63;;;7.10;99.90;;;;;;5055032;28;20231;-64
2024/01/27 11:51:18;;;;;;;16.55;4.43;;;7.10;99.90;;;;;;5054541;28;20292;-65
2024/01/27 11:53:46;;;;;;;12.15;4.88;;;7.10;99.90;;;;;;5060283;28;20221;-68
2024/01/27 11:56:14;;;;;;;11.00;4.55;;;7.20;99.90;;;;;;5060647;28;20726;-64
2024/01/27 11:58:48;;;;;;;9.75;4.38;;;7.20;99.90;;;;;;5059468;28;20579;-64
2024/01/27 12:01:14;;;;;;;9.25;4.38;;;7.20;99.90;;;;;;5058702;28;20243;-63
2024/01/27 12:03:42;;;;;;;9.13;4.47;;;7.20;99.90;;;;;;5056181;28;20194;-62
2024/01/27 12:06:08;;;;;;;15.70;5.10;;;7.20;99.90;;;;;;5057013;28;20699;-63
2024/01/27 12:08:36;;;;;;;10.52;4.85;;;7.20;99.90;;;;;;5058020;28;20216;-64
2024/01/27 12:11:04;;;;;;;10.73;5.05;;;7.20;99.90;;;;;;5057149;28;20663;-65
2024/01/27 12:13:31;;;;;;;6.45;3.95;;;7.20;99.90;;;;;;5056442;28;20230;-64
2024/01/27 12:15:58;;;;;;;13.63;5.05;;;7.20;99.90;;;;;;5057148;28;20228;-64
2024/01/27 12:18:25;;;;;;;10.88;4.85;;;7.20;99.90;;;;;;5060389;28;20575;-64
2024/01/27 12:20:56;;;;;;;11.43;5.30;;;7.20;99.90;;;;;;5056356;28;20701;-63
2024/01/27 12:23:23;;;;;;;11.18;4.50;;;7.20;99.90;;;;;;5055848;28;20197;-63
2024/01/27 12:25:54;;;;;;;15.93;6.63;;;7.20;99.90;;;;;;5055749;28;20700;-64
2024/01/27 12:28:24;;;;;;;11.65;5.22;;;7.20;99.90;;;;;;5056838;28;20193;-63
2024/01/27 12:30:51;;;;;;;14.27;4.80;;;7.30;99.90;;;;;;5055882;28;20588;-63
2024/01/27 12:33:19;;;;;;;8.20;4.53;;;7.30;99.90;;;;;;5058238;28;20248;-64
2024/01/27 12:35:46;;;;;;;12.43;4.15;;;7.30;99.90;;;;;;5061211;28;20217;-64
2024/01/27 12:38:13;;;;;;;11.35;3.92;;;7.40;99.90;;;;;;5059268;28;20197;-67
2024/01/27 12:40:40;;;;;;;7.85;4.00;;;7.40;99.90;;;;;;5060191;28;20668;-63
2024/01/27 12:43:07;;;;;;;12.13;4.10;;;7.40;99.90;;;;;;5059118;28;20209;-62
2024/01/27 12:45:36;;;;;;;15.27;4.93;;;7.50;99.90;;;;;;5058208;28;20222;-62
2024/01/27 12:48:05;;;;;;;10.93;4.22;;;7.50;99.90;;;;;;5058555;28;20606;-63
2024/01/27 12:50:32;;;;;;;9.45;4.20;;;7.40;99.90;;;;;;5059015;28;20339;-64
2024/01/27 12:52:59;;;;;;;11.45;4.60;;;7.50;99.90;;;;;;5058430;28;20269;-64